This is the latest recevied weather packets stored in our database for station/object N5ZKK. If no packets are shown the sender has not sent any weather packets the latest 1 day(s).
| Time | Temp. | Humidity | Pressure | Rain* | Wind** | Luminosity | Snow |
|---|---|---|---|---|---|---|---|
| 1778031913 | 26.11° C | 79% | 1006.5 hPa | 0 mm | 0.45 m/s, 165° | - | - |
| 1778031313 | 26.11° C | 78% | 1006.3 hPa | 0 mm | 0.89 m/s, 173° | - | - |
| 1778030713 | 26.67° C | 76% | 1006 hPa | 0 mm | 0.45 m/s, 153° | - | - |
| 1778030413 | 26.67° C | 76% | 1006 hPa | 0 mm | 0.89 m/s, 147° | - | - |
| 1778030113 | 27.22° C | 75% | 1005.8 hPa | 0 mm | 1.34 m/s, 176° | - | - |
| 1778029741 | 27.22° C | 74% | 1005.7 hPa | 0 mm | 1.79 m/s, 152° | - | - |
| 1778027941 | 29.44° C | 67% | 1005.5 hPa | 0 mm | 0.89 m/s, 137° | - | - |
| 1778026141 | 29.44° C | 66% | 1005.5 hPa | 0 mm | 1.34 m/s, 191° | - | - |
| 1778024341 | 30° C | 64% | 1005.3 hPa | 0 mm | 1.34 m/s, 170° | - | - |
| 1778022541 | 29.44° C | 66% | 1005.4 hPa | 0 mm | 1.79 m/s, 155° | - | - |
| 1778020741 | 30° C | 64% | 1005.4 hPa | 0 mm | 1.79 m/s, 134° | - | - |
| 1778018941 | 30° C | 63% | 1005.4 hPa | 0 mm | 1.34 m/s, 187° | - | - |
| 1778017141 | 30.56° C | 61% | 1005.6 hPa | 0 mm | 2.24 m/s, 182° | - | - |
| 1778015341 | 31.11° C | 60% | 1005.8 hPa | 0 mm | 1.34 m/s, 213° | - | - |
| 1778013541 | 30.56° C | 61% | 1006.1 hPa | 0 mm | 2.68 m/s, 137° | - | - |
| 1778011741 | 30.56° C | 62% | 1006.5 hPa | 0 mm | 1.79 m/s, 116° | - | - |
| 1778009941 | 30° C | 63% | 1007 hPa | 0 mm | 2.24 m/s, 171° | - | - |
| 1778008141 | 28.89° C | 65% | 1007.5 hPa | 0 mm | 2.24 m/s, 178° | - | - |
| 1778006341 | 29.44° C | 65% | 1008 hPa | 0 mm | 1.79 m/s, 143° | - | - |
| 1778004541 | 28.33° C | 68% | 1008.4 hPa | 0 mm | 1.34 m/s, 132° | - | - |
| 1778002741 | 27.78° C | 70% | 1009 hPa | 0 mm | 1.34 m/s, 205° | - | - |
| 1778000941 | 25.56° C | 77% | 1009.6 hPa | 0 mm | 2.24 m/s, 191° | - | - |
| 1777999141 | 23.89° C | 81% | 1009.7 hPa | 0 mm | 1.79 m/s, 223° | - | - |
| 1777997341 | 22.78° C | 87% | 1009.9 hPa | 0 mm | 1.79 m/s, 219° | - | - |
| 1777995541 | 22.22° C | 89% | 1010 hPa | 0 mm | 1.79 m/s, 190° | - | - |
* Rain latest hour (hover to see other rain measurements)
** Current wind speed in m/s (hover to see current wind gust speed)